Cote D IVoirian Star — A8SL4 — position and weather

sailwx.info

Track history (hours):
 
Tides and Currents Weather Stations Pressure Air Temp Water Temp Dewpoint Dewpoint Depression Visibility Wind Speed Wind Dir Waves Ship Positions

Cote D IVoirian Star

Last reported at 2015-Mar-30 22:33 UTC. Time now 2015-Mar-30 23:07 UTC.
Position N 25°06' W 017°04'.

Length 185 m; draft 7.8 m.

Type: Cargo ship. MMSI: 636014241.

Date/timePositionNaut miles runAvg speedWind from/ knotsBaromVisibWave heightAir tempDewpointWater temp
2015-Mar-30 22:33N 25°06' W 017°04'14217.7
2015-Mar-30 14:33N 27°24' W 016°28'5717.6
2015-Mar-30 11:17N 28°17' W 016°04'1317.7
2015-Mar-30 10:33N 28°27' W 015°55'1817.7
2015-Mar-30 09:33N 28°41' W 015°42'1817.7
2015-Mar-30 08:33N 28°58' W 015°36'1817.5
2015-Mar-30 07:33N 29°14' W 015°30'1817.5
2015-Mar-30 06:33N 29°31' W 015°25'1717.6
2015-Mar-30 05:33N 29°48' W 015°20'1817.6
2015-Mar-30 04:33N 30°05' W 015°14'1717.3
2015-Mar-30 03:33N 30°22' W 015°09'1717.5
2015-Mar-30 02:33N 30°39' W 015°03'1817.7
2015-Mar-30 01:33N 30°56' W 014°58'4217.5
2015-Mar-29 23:11N 31°36' W 014°44'1117.7
2015-Mar-29 22:33N 31°47' W 014°41'1817.8
2015-Mar-29 21:33N 32°04' W 014°35'1817.6
2015-Mar-29 20:33N 32°20' W 014°29'1817.4
2015-Mar-29 19:33N 32°37' W 014°24'2317.3
2015-Mar-29 18:13N 32°60' W 014°16'1217.7
2015-Mar-29 17:32N 33°11' W 014°12'23317.6
2015-Mar-29 04:19N 36°55' W 012°55'2117.9
2015-Mar-29 03:10N 37°14' W 012°48'1917.5
2015-Mar-29 02:04N 37°33' W 012°41'1417.7
2015-Mar-29 01:18N 37°46' W 012°37'3817.7
2015-Mar-28 23:09N 38°23' W 012°23'4617.7
2015-Mar-28 20:33N 39°07' W 012°07'3617.6
2015-Mar-28 18:31N 39°41' W 011°55'72816.8
2015-Mar-26 23:07N 49°59' W 002°53'10617.8
2015-Mar-26 17:09N 50°27' W 000°13'1217.5
2015-Mar-26 16:29N 50°30' E 000°05'1616.8
2015-Mar-26 15:33N 50°34' E 000°29'1615.9
2015-Mar-26 14:33N 50°42' E 000°50'1615.5
2015-Mar-26 13:32N 50°52' E 001°10'1616.2
2015-Mar-26 12:34N 51°03' E 001°28'1413.8
2015-Mar-26 11:33N 51°13' E 001°44'1616.4
2015-Mar-26 10:33N 51°25' E 002°02'1616.0
2015-Mar-26 09:33N 51°23' E 002°27'1414.5
2015-Mar-26 08:33N 51°22' E 002°50'1515.2
2015-Mar-26 07:33N 51°25' E 003°14'1414.0
2015-Mar-26 06:33N 51°26' E 003°37'1111.3
2015-Mar-26 05:33N 51°21' E 003°53'6 6.3
2015-Mar-26 04:34N 51°23' E 004°02'9 9.0
2015-Mar-26 03:34N 51°21' E 004°16'5 4.8
2015-Mar-26 02:33N 51°16' E 004°17'0 0.5
2015-Mar-26 01:33N 51°16' E 004°16'1 0.8
2015-Mar-26 00:28N 51°16' E 004°15'0 0.0
2015-Mar-25 23:31N 51°16' E 004°15'0 0.0
2015-Mar-25 22:28N 51°16' E 004°15'0 0.0
2015-Mar-25 21:31N 51°16' E 004°15'0 0.0
2015-Mar-25 20:31N 51°16' E 004°15'0 0.0
2015-Mar-25 19:31N 51°16' E 004°15'0 0.0
2015-Mar-25 18:31N 51°16' E 004°15'0 0.0
2015-Mar-25 17:28N 51°16' E 004°15'0 0.0
2015-Mar-25 16:31N 51°16' E 004°15'0 0.0
2015-Mar-25 15:31N 51°16' E 004°15'0 0.0
2015-Mar-25 14:31N 51°16' E 004°15'0 0.0
2015-Mar-25 13:28N 51°16' E 004°15'0 0.0
2015-Mar-25 12:31N 51°16' E 004°15'0 0.0
2015-Mar-25 11:31N 51°16' E 004°15'0 0.0
2015-Mar-25 10:31N 51°16' E 004°15'0 0.0
2015-Mar-25 09:28N 51°16' E 004°15'0 0.0
2015-Mar-25 08:31N 51°16' E 004°15'0 0.0
2015-Mar-25 07:31N 51°16' E 004°15'0 0.0
2015-Mar-25 06:31N 51°16' E 004°15'0 0.0
2015-Mar-25 05:28N 51°16' E 004°15'0 0.0
2015-Mar-25 04:31N 51°16' E 004°15'0 0.0
2015-Mar-25 03:31N 51°16' E 004°15'0 0.0
2015-Mar-25 02:31N 51°16' E 004°15'0 0.0
2015-Mar-25 01:31N 51°16' E 004°15'0 0.0
2015-Mar-25 00:28N 51°16' E 004°15'0 0.0
2015-Mar-24 23:31N 51°16' E 004°15'0 0.0
2015-Mar-24 22:31N 51°16' E 004°15'0 0.0
2015-Mar-24 21:31N 51°16' E 004°15'0 0.0
2015-Mar-24 20:25N 51°16' E 004°15'0 0.0
2015-Mar-24 19:31N 51°16' E 004°15'0 0.0
2015-Mar-24 18:31N 51°16' E 004°15'0 0.0
2015-Mar-24 17:31N 51°16' E 004°15'0 0.0
2015-Mar-24 16:28N 51°16' E 004°15'0 0.0
2015-Mar-24 15:31N 51°16' E 004°15'0 0.0
2015-Mar-24 14:31N 51°16' E 004°15'0 0.0
2015-Mar-24 13:28N 51°16' E 004°15'0 0.0
2015-Mar-24 12:31N 51°16' E 004°15'0 0.0
2015-Mar-24 11:31N 51°16' E 004°15'0 0.0
2015-Mar-24 10:28N 51°16' E 004°15'0 0.0
2015-Mar-24 09:28N 51°16' E 004°15'0 0.0
2015-Mar-24 08:28N 51°16' E 004°15'0 0.0
2015-Mar-24 07:28N 51°16' E 004°15'0 0.0
2015-Mar-24 06:33N 51°16' E 004°15'0 0.0
2015-Mar-24 05:25N 51°16' E 004°15'0 0.0
2015-Mar-24 04:30N 51°16' E 004°15'0 0.0
2015-Mar-24 03:31N 51°16' E 004°15'0 0.0
2015-Mar-24 02:31N 51°16' E 004°15'0 0.0
2015-Mar-24 01:31N 51°16' E 004°15'0 0.0
2015-Mar-24 00:31N 51°16' E 004°15'0 0.0
2015-Mar-23 23:31N 51°16' E 004°15'0 0.0
2015-Mar-23 22:31N 51°16' E 004°15'0 0.0
2015-Mar-23 21:31N 51°16' E 004°15'0 0.0
2015-Mar-23 20:31N 51°16' E 004°15'0 0.0
2015-Mar-23 19:31N 51°16' E 004°15'0 0.0
2015-Mar-23 18:31N 51°16' E 004°15'0 0.0
2015-Mar-23 17:31N 51°16' E 004°15'0 0.0
2015-Mar-23 16:31N 51°16' E 004°15'0 0.0
2015-Mar-23 15:31N 51°16' E 004°15'0 0.0
2015-Mar-23 14:31N 51°16' E 004°15'0 0.0
2015-Mar-23 13:31N 51°16' E 004°15'0 0.0
2015-Mar-23 12:31N 51°16' E 004°15'0 0.0
2015-Mar-23 11:31N 51°16' E 004°15'0 0.0
2015-Mar-23 10:31N 51°16' E 004°15'0 0.0
2015-Mar-23 09:31N 51°16' E 004°15'0 0.0
2015-Mar-23 08:31N 51°16' E 004°15'0 0.0
2015-Mar-23 07:28N 51°16' E 004°15'0 0.0
2015-Mar-23 06:31N 51°16' E 004°15'0 0.0
2015-Mar-23 05:31N 51°16' E 004°15'0 0.0
2015-Mar-23 04:31N 51°16' E 004°15'0 0.0
2015-Mar-23 03:31N 51°16' E 004°15'0 0.0
2015-Mar-23 02:25N 51°16' E 004°15'0 0.0
2015-Mar-23 01:31N 51°16' E 004°15'0 0.0
2015-Mar-23 00:31N 51°16' E 004°15'0 0.0
2015-Mar-22 23:33N 51°16' E 004°15'0 0.0
2015-Mar-22 22:33N 51°16' E 004°15'0 0.0
2015-Mar-22 21:33N 51°16' E 004°15'0 0.1
2015-Mar-22 20:33N 51°16' E 004°15'1 1.3
2015-Mar-22 19:33N 51°16' E 004°17'2 2.1
2015-Mar-22 18:34N 51°17' E 004°19'5 5.3
2015-Mar-22 17:33N 51°22' E 004°13'8 8.4
2015-Mar-22 16:33N 51°26' E 004°01'1110.7
2015-Mar-22 15:33N 51°22' E 003°46'1110.7
2015-Mar-22 14:34N 51°25' E 003°29'1717.5
2015-Mar-22 13:34N 51°24' E 003°01'1414.4
2015-Mar-22 12:33N 51°22' E 002°38'1917.3
2015-Mar-22 11:29N 51°16' E 002°10'1617.6
2015-Mar-22 10:34N 51°07' E 001°48'1616.4
2015-Mar-22 09:33N 50°57' E 001°28'2214.9
2015-Mar-22 08:06N 50°37' E 001°12'3417.3
2015-Mar-22 06:09N 50°24' E 000°23'3316.6
2015-Mar-22 04:10N 50°26' W 000°28'1117.6
2015-Mar-22 03:34N 50°31' W 000°43'1414.0
2015-Mar-22 02:33N 50°42' W 000°58'8 8.4
2015-Mar-22 01:33N 50°49' W 001°06'0 0.1
2015-Mar-22 00:32N 50°49' W 001°05'0 0.0
2015-Mar-21 23:32N 50°49' W 001°05'0 0.0
2015-Mar-21 22:29N 50°49' W 001°05'0 0.0
2015-Mar-21 21:32N 50°49' W 001°05'0 0.0
2015-Mar-21 20:32N 50°49' W 001°05'0 0.0
2015-Mar-21 19:32N 50°49' W 001°05'0 0.0
2015-Mar-21 18:32N 50°49' W 001°05'0 0.0
2015-Mar-21 17:32N 50°49' W 001°05'0 0.0
2015-Mar-21 16:32N 50°49' W 001°05'0 0.0
2015-Mar-21 15:32N 50°49' W 001°05'0 0.0
2015-Mar-21 14:29N 50°49' W 001°05'0 0.0
2015-Mar-21 13:32N 50°49' W 001°05'0 0.0
2015-Mar-21 12:33N 50°49' W 001°05'1 0.7
2015-Mar-21 11:33N 50°49' W 001°07'8 8.3
2015-Mar-21 10:34N 50°42' W 000°58'7 7.0
2015-Mar-21 09:33N 50°35' W 000°59'10 9.5
2015-Mar-21 08:33N 50°29' W 001°09'1212.4
2015-Mar-21 07:33N 50°21' W 001°25'  
Track history (hours):
 
Tides and Currents Weather Stations Pressure Air Temp Water Temp Dewpoint Dewpoint Depression Visibility Wind Speed Wind Dir Waves Ship Positions

Cote D IVoirian Star

Last reported at 2015-Mar-30 22:33 UTC. Time now 2015-Mar-30 23:07 UTC.
Position N 25°06' W 017°04'.

Length 185 m; draft 7.8 m.

Type: Cargo ship. MMSI: 636014241.

Date/timePositionNaut miles runAvg speedWind from/ knotsBaromVisibWave heightAir tempDewpointWater temp
2015-Mar-30 22:33N 25°06' W 017°04'14217.7
2015-Mar-30 14:33N 27°24' W 016°28'5717.6
2015-Mar-30 11:17N 28°17' W 016°04'1317.7
2015-Mar-30 10:33N 28°27' W 015°55'1817.7
2015-Mar-30 09:33N 28°41' W 015°42'1817.7
2015-Mar-30 08:33N 28°58' W 015°36'1817.5
2015-Mar-30 07:33N 29°14' W 015°30'1817.5
2015-Mar-30 06:33N 29°31' W 015°25'1717.6
2015-Mar-30 05:33N 29°48' W 015°20'1817.6
2015-Mar-30 04:33N 30°05' W 015°14'1717.3
2015-Mar-30 03:33N 30°22' W 015°09'1717.5
2015-Mar-30 02:33N 30°39' W 015°03'1817.7
2015-Mar-30 01:33N 30°56' W 014°58'4217.5
2015-Mar-29 23:11N 31°36' W 014°44'1117.7
2015-Mar-29 22:33N 31°47' W 014°41'1817.8
2015-Mar-29 21:33N 32°04' W 014°35'1817.6
2015-Mar-29 20:33N 32°20' W 014°29'1817.4
2015-Mar-29 19:33N 32°37' W 014°24'2317.3
2015-Mar-29 18:13N 32°60' W 014°16'1217.7
2015-Mar-29 17:32N 33°11' W 014°12'23317.6
2015-Mar-29 04:19N 36°55' W 012°55'2117.9
2015-Mar-29 03:10N 37°14' W 012°48'1917.5
2015-Mar-29 02:04N 37°33' W 012°41'1417.7
2015-Mar-29 01:18N 37°46' W 012°37'3817.7
2015-Mar-28 23:09N 38°23' W 012°23'4617.7
2015-Mar-28 20:33N 39°07' W 012°07'3617.6
2015-Mar-28 18:31N 39°41' W 011°55'72816.8
2015-Mar-26 23:07N 49°59' W 002°53'10617.8
2015-Mar-26 17:09N 50°27' W 000°13'1217.5
2015-Mar-26 16:29N 50°30' E 000°05'1616.8
2015-Mar-26 15:33N 50°34' E 000°29'1615.9
2015-Mar-26 14:33N 50°42' E 000°50'1615.5
2015-Mar-26 13:32N 50°52' E 001°10'1616.2
2015-Mar-26 12:34N 51°03' E 001°28'1413.8
2015-Mar-26 11:33N 51°13' E 001°44'1616.4
2015-Mar-26 10:33N 51°25' E 002°02'1616.0
2015-Mar-26 09:33N 51°23' E 002°27'1414.5
2015-Mar-26 08:33N 51°22' E 002°50'1515.2
2015-Mar-26 07:33N 51°25' E 003°14'1414.0
2015-Mar-26 06:33N 51°26' E 003°37'1111.3
2015-Mar-26 05:33N 51°21' E 003°53'6 6.3
2015-Mar-26 04:34N 51°23' E 004°02'9 9.0
2015-Mar-26 03:34N 51°21' E 004°16'5 4.8
2015-Mar-26 02:33N 51°16' E 004°17'0 0.5
2015-Mar-26 01:33N 51°16' E 004°16'1 0.8
2015-Mar-26 00:28N 51°16' E 004°15'0 0.0
2015-Mar-25 23:31N 51°16' E 004°15'0 0.0
2015-Mar-25 22:28N 51°16' E 004°15'0 0.0
2015-Mar-25 21:31N 51°16' E 004°15'0 0.0
2015-Mar-25 20:31N 51°16' E 004°15'0 0.0
2015-Mar-25 19:31N 51°16' E 004°15'0 0.0
2015-Mar-25 18:31N 51°16' E 004°15'0 0.0
2015-Mar-25 17:28N 51°16' E 004°15'0 0.0
2015-Mar-25 16:31N 51°16' E 004°15'0 0.0
2015-Mar-25 15:31N 51°16' E 004°15'0 0.0
2015-Mar-25 14:31N 51°16' E 004°15'0 0.0
2015-Mar-25 13:28N 51°16' E 004°15'0 0.0
2015-Mar-25 12:31N 51°16' E 004°15'0 0.0
2015-Mar-25 11:31N 51°16' E 004°15'0 0.0
2015-Mar-25 10:31N 51°16' E 004°15'0 0.0
2015-Mar-25 09:28N 51°16' E 004°15'0 0.0
2015-Mar-25 08:31N 51°16' E 004°15'0 0.0
2015-Mar-25 07:31N 51°16' E 004°15'0 0.0
2015-Mar-25 06:31N 51°16' E 004°15'0 0.0
2015-Mar-25 05:28N 51°16' E 004°15'0 0.0
2015-Mar-25 04:31N 51°16' E 004°15'0 0.0
2015-Mar-25 03:31N 51°16' E 004°15'0 0.0
2015-Mar-25 02:31N 51°16' E 004°15'0 0.0
2015-Mar-25 01:31N 51°16' E 004°15'0 0.0
2015-Mar-25 00:28N 51°16' E 004°15'0 0.0
2015-Mar-24 23:31N 51°16' E 004°15'0 0.0
2015-Mar-24 22:31N 51°16' E 004°15'0 0.0
2015-Mar-24 21:31N 51°16' E 004°15'0 0.0
2015-Mar-24 20:25N 51°16' E 004°15'0 0.0
2015-Mar-24 19:31N 51°16' E 004°15'0 0.0
2015-Mar-24 18:31N 51°16' E 004°15'0 0.0
2015-Mar-24 17:31N 51°16' E 004°15'0 0.0
2015-Mar-24 16:28N 51°16' E 004°15'0 0.0
2015-Mar-24 15:31N 51°16' E 004°15'0 0.0
2015-Mar-24 14:31N 51°16' E 004°15'0 0.0
2015-Mar-24 13:28N 51°16' E 004°15'0 0.0
2015-Mar-24 12:31N 51°16' E 004°15'0 0.0
2015-Mar-24 11:31N 51°16' E 004°15'0 0.0
2015-Mar-24 10:28N 51°16' E 004°15'0 0.0
2015-Mar-24 09:28N 51°16' E 004°15'0 0.0
2015-Mar-24 08:28N 51°16' E 004°15'0 0.0
2015-Mar-24 07:28N 51°16' E 004°15'0 0.0
2015-Mar-24 06:33N 51°16' E 004°15'0 0.0
2015-Mar-24 05:25N 51°16' E 004°15'0 0.0
2015-Mar-24 04:30N 51°16' E 004°15'0 0.0
2015-Mar-24 03:31N 51°16' E 004°15'0 0.0
2015-Mar-24 02:31N 51°16' E 004°15'0 0.0
2015-Mar-24 01:31N 51°16' E 004°15'0 0.0
2015-Mar-24 00:31N 51°16' E 004°15'0 0.0
2015-Mar-23 23:31N 51°16' E 004°15'0 0.0
2015-Mar-23 22:31N 51°16' E 004°15'0 0.0
2015-Mar-23 21:31N 51°16' E 004°15'0 0.0
2015-Mar-23 20:31N 51°16' E 004°15'0 0.0
2015-Mar-23 19:31N 51°16' E 004°15'0 0.0
2015-Mar-23 18:31N 51°16' E 004°15'0 0.0
2015-Mar-23 17:31N 51°16' E 004°15'0 0.0
2015-Mar-23 16:31N 51°16' E 004°15'0 0.0
2015-Mar-23 15:31N 51°16' E 004°15'0 0.0
2015-Mar-23 14:31N 51°16' E 004°15'0 0.0
2015-Mar-23 13:31N 51°16' E 004°15'0 0.0
2015-Mar-23 12:31N 51°16' E 004°15'0 0.0
2015-Mar-23 11:31N 51°16' E 004°15'0 0.0
2015-Mar-23 10:31N 51°16' E 004°15'0 0.0
2015-Mar-23 09:31N 51°16' E 004°15'0 0.0
2015-Mar-23 08:31N 51°16' E 004°15'0 0.0
2015-Mar-23 07:28N 51°16' E 004°15'0 0.0
2015-Mar-23 06:31N 51°16' E 004°15'0 0.0
2015-Mar-23 05:31N 51°16' E 004°15'0 0.0
2015-Mar-23 04:31N 51°16' E 004°15'0 0.0
2015-Mar-23 03:31N 51°16' E 004°15'0 0.0
2015-Mar-23 02:25N 51°16' E 004°15'0 0.0
2015-Mar-23 01:31N 51°16' E 004°15'0 0.0
2015-Mar-23 00:31N 51°16' E 004°15'0 0.0
2015-Mar-22 23:33N 51°16' E 004°15'0 0.0
2015-Mar-22 22:33N 51°16' E 004°15'0 0.0
2015-Mar-22 21:33N 51°16' E 004°15'0 0.1
2015-Mar-22 20:33N 51°16' E 004°15'1 1.3
2015-Mar-22 19:33N 51°16' E 004°17'2 2.1
2015-Mar-22 18:34N 51°17' E 004°19'5 5.3
2015-Mar-22 17:33N 51°22' E 004°13'8 8.4
2015-Mar-22 16:33N 51°26' E 004°01'1110.7
2015-Mar-22 15:33N 51°22' E 003°46'1110.7
2015-Mar-22 14:34N 51°25' E 003°29'1717.5
2015-Mar-22 13:34N 51°24' E 003°01'1414.4
2015-Mar-22 12:33N 51°22' E 002°38'1917.3
2015-Mar-22 11:29N 51°16' E 002°10'1617.6
2015-Mar-22 10:34N 51°07' E 001°48'1616.4
2015-Mar-22 09:33N 50°57' E 001°28'2214.9
2015-Mar-22 08:06N 50°37' E 001°12'3417.3
2015-Mar-22 06:09N 50°24' E 000°23'3316.6
2015-Mar-22 04:10N 50°26' W 000°28'1117.6
2015-Mar-22 03:34N 50°31' W 000°43'1414.0
2015-Mar-22 02:33N 50°42' W 000°58'8 8.4
2015-Mar-22 01:33N 50°49' W 001°06'0 0.1
2015-Mar-22 00:32N 50°49' W 001°05'0 0.0
2015-Mar-21 23:32N 50°49' W 001°05'0 0.0
2015-Mar-21 22:29N 50°49' W 001°05'0 0.0
2015-Mar-21 21:32N 50°49' W 001°05'0 0.0
2015-Mar-21 20:32N 50°49' W 001°05'0 0.0
2015-Mar-21 19:32N 50°49' W 001°05'0 0.0
2015-Mar-21 18:32N 50°49' W 001°05'0 0.0
2015-Mar-21 17:32N 50°49' W 001°05'0 0.0
2015-Mar-21 16:32N 50°49' W 001°05'0 0.0
2015-Mar-21 15:32N 50°49' W 001°05'0 0.0
2015-Mar-21 14:29N 50°49' W 001°05'0 0.0
2015-Mar-21 13:32N 50°49' W 001°05'0 0.0
2015-Mar-21 12:33N 50°49' W 001°05'1 0.7
2015-Mar-21 11:33N 50°49' W 001°07'8 8.3
2015-Mar-21 10:34N 50°42' W 000°58'7 7.0
2015-Mar-21 09:33N 50°35' W 000°59'10 9.5
2015-Mar-21 08:33N 50°29' W 001°09'1212.4
2015-Mar-21 07:33N 50°21' W 001°25'  

Dump ship's entire track history